createdAt,value
2018-05-14T00:02:24.636Z,47.33
2018-05-14T00:04:53.008Z,48.43
2018-05-14T00:07:21.376Z,48.30
2018-05-14T00:09:49.748Z,47.80
2018-05-14T00:12:18.112Z,47.70
2018-05-14T00:14:46.502Z,47.83
2018-05-14T00:17:14.848Z,48.57
2018-05-14T00:19:43.180Z,46.53
2018-05-14T00:22:11.573Z,46.93
2018-05-14T00:24:39.962Z,47.87
2018-05-14T00:27:08.328Z,46.43
2018-05-14T00:29:36.717Z,46.30
2018-05-14T00:32:05.053Z,45.30
2018-05-14T00:34:33.415Z,44.77
2018-05-14T00:37:02.551Z,43.07
2018-05-14T00:42:05.266Z,46.47
2018-05-14T00:44:33.635Z,46.20
2018-05-14T00:47:02.015Z,46.27
2018-05-14T00:49:30.429Z,45.37
2018-05-14T00:51:58.727Z,45.03
2018-05-14T00:54:27.097Z,44.63
2018-05-14T00:56:55.511Z,43.20
2018-05-14T00:59:23.894Z,44.57
2018-05-14T01:01:52.300Z,45.07
2018-05-14T01:04:20.778Z,46.67
2018-05-14T01:06:49.179Z,48.47
2018-05-14T01:09:17.615Z,44.33
2018-05-14T01:11:45.992Z,45.20
2018-05-14T01:14:15.339Z,49.47
2018-05-14T01:16:43.717Z,48.87
2018-05-14T01:19:12.052Z,46.33
2018-05-14T01:21:40.421Z,48.47
2018-05-14T01:24:08.766Z,48.07
2018-05-14T01:26:37.091Z,53.30
2018-05-14T01:29:05.423Z,48.87
2018-05-14T01:31:33.800Z,52.70
2018-05-14T01:34:02.203Z,55.97
2018-05-14T01:36:30.543Z,59.20
2018-05-14T01:38:58.856Z,50.90
2018-05-14T01:41:27.928Z,58.60
2018-05-14T01:43:56.250Z,62.80
2018-05-14T01:46:24.659Z,58.87
2018-05-14T01:48:53.503Z,63.83
2018-05-14T01:51:21.899Z,60.67
2018-05-14T01:53:50.237Z,64.13
2018-05-14T01:56:18.603Z,59.37
2018-05-14T01:58:47.031Z,63.47
2018-05-14T02:01:15.368Z,58.53
2018-05-14T02:03:43.740Z,66.13
2018-05-14T02:06:12.080Z,64.47
2018-05-14T02:08:40.547Z,59.97
2018-05-14T02:11:08.914Z,59.43
2018-05-14T02:13:38.096Z,63.00
2018-05-14T02:16:06.419Z,52.60
2018-05-14T02:18:34.856Z,56.90
2018-05-14T02:21:03.974Z,53.43
2018-05-14T02:23:33.511Z,59.67
2018-05-14T02:26:01.871Z,59.20
2018-05-14T02:28:30.235Z,56.90
2018-05-14T02:30:58.539Z,56.30
2018-05-14T02:33:26.921Z,55.73
2018-05-14T02:35:55.272Z,58.43
2018-05-14T02:38:23.678Z,55.57
2018-05-14T02:40:52.055Z,56.00
2018-05-14T02:43:20.468Z,54.77
2018-05-14T02:45:48.904Z,53.50
2018-05-14T02:48:17.279Z,58.97
2018-05-14T02:50:45.654Z,56.20
2018-05-14T02:53:14.298Z,49.43
2018-05-14T02:55:42.619Z,55.53
2018-05-14T02:58:12.015Z,55.20
2018-05-14T03:00:40.419Z,50.50
2018-05-14T03:03:08.823Z,52.17
2018-05-14T03:05:37.212Z,50.70
2018-05-14T03:08:05.623Z,47.57
2018-05-14T03:10:34.875Z,50.03
2018-05-14T03:13:03.252Z,52.83
2018-05-14T03:15:31.593Z,49.60
2018-05-14T03:17:59.931Z,47.30
2018-05-14T03:20:28.948Z,49.10
2018-05-14T03:22:57.400Z,51.13
2018-05-14T03:25:25.775Z,47.47
2018-05-14T03:27:54.256Z,50.17
2018-05-14T03:30:22.655Z,43.20
2018-05-14T03:32:50.956Z,46.43
2018-05-14T03:35:19.309Z,45.97
2018-05-14T03:37:47.683Z,43.87
2018-05-14T03:40:15.991Z,43.13
2018-05-14T03:42:45.294Z,44.43
2018-05-14T03:45:13.556Z,40.13
2018-05-14T03:47:41.931Z,41.47
2018-05-14T03:50:10.289Z,42.60
2018-05-14T03:52:38.694Z,45.23
2018-05-14T03:55:07.112Z,46.50
2018-05-14T03:57:35.454Z,44.97
2018-05-14T04:00:21.579Z,41.23
2018-05-14T04:03:07.744Z,41.43
2018-05-14T04:05:54.742Z,42.63
2018-05-14T04:08:23.213Z,40.63
2018-05-14T04:10:51.584Z,42.50
2018-05-14T04:13:19.996Z,38.57
2018-05-14T04:15:49.179Z,44.43
2018-05-14T04:18:18.522Z,44.37
2018-05-14T04:20:55.608Z,43.33
2018-05-14T04:23:26.829Z,43.80
2018-05-14T04:26:13.083Z,39.10
2018-05-14T04:28:47.303Z,40.53
2018-05-14T04:31:16.783Z,41.93
2018-05-14T04:33:47.159Z,41.50
2018-05-14T04:36:35.047Z,44.03
2018-05-14T04:39:22.161Z,41.23
2018-05-14T04:41:53.484Z,43.53
2018-05-14T04:44:27.005Z,40.10
2018-05-14T04:46:57.343Z,43.60
2018-05-14T04:49:29.664Z,41.73
2018-05-14T04:51:58.883Z,42.83
2018-05-14T04:54:28.987Z,40.03
2018-05-14T04:57:00.250Z,42.40
2018-05-14T05:06:01.922Z,43.40
2018-05-14T05:08:30.177Z,42.43
2018-05-14T05:10:59.254Z,39.30
2018-05-14T05:13:27.536Z,38.57
2018-05-14T05:15:55.808Z,44.57
2018-05-14T05:18:24.065Z,40.67
2018-05-14T05:20:52.345Z,44.13
2018-05-14T05:23:20.676Z,41.67
2018-05-14T05:25:48.965Z,41.93
2018-05-14T05:28:17.277Z,41.53
2018-05-14T05:30:45.499Z,44.83
2018-05-14T05:33:13.786Z,43.23
2018-05-14T05:35:52.297Z,42.47
2018-05-14T05:38:20.609Z,42.77
2018-05-14T05:40:48.882Z,42.10
2018-05-14T05:43:17.172Z,43.60
2018-05-14T05:45:45.452Z,41.63
2018-05-14T05:48:13.726Z,46.93
2018-05-14T05:50:42.023Z,43.40
2018-05-14T05:53:10.290Z,44.47
2018-05-14T05:55:38.609Z,41.07
2018-05-14T05:58:06.889Z,41.07
2018-05-14T06:00:35.153Z,42.17
2018-05-14T06:03:04.205Z,44.03
2018-05-14T06:05:32.514Z,44.63
2018-05-14T06:08:01.589Z,43.93
2018-05-14T06:10:29.881Z,42.73
2018-05-14T06:12:58.928Z,42.23
2018-05-14T06:15:27.194Z,41.07
2018-05-14T06:17:55.429Z,41.00
2018-05-14T06:20:24.500Z,46.37
2018-05-14T06:22:52.775Z,44.03
2018-05-14T06:25:21.053Z,41.10
2018-05-14T06:27:49.383Z,39.33
2018-05-14T06:30:17.748Z,41.50
2018-05-14T06:32:46.825Z,38.53
2018-05-14T06:35:15.108Z,40.50
2018-05-14T06:37:44.141Z,42.03
2018-05-14T06:40:12.430Z,43.33
2018-05-14T06:42:40.747Z,43.03
2018-05-14T06:45:09.066Z,40.50
2018-05-14T06:47:37.348Z,39.20
2018-05-14T06:50:05.675Z,42.30
2018-05-14T06:52:33.989Z,42.33
2018-05-14T06:55:02.291Z,38.70
2018-05-14T06:57:30.567Z,44.63
2018-05-14T06:59:58.850Z,47.27
2018-05-14T07:02:27.148Z,43.43
2018-05-14T07:04:55.424Z,43.73
2018-05-14T07:07:23.717Z,46.73
2018-05-14T07:09:52.047Z,42.77
2018-05-14T07:12:20.341Z,42.90
2018-05-14T07:14:48.584Z,40.63
2018-05-14T07:17:16.934Z,40.97
2018-05-14T07:19:45.189Z,39.60
2018-05-14T07:22:13.467Z,39.77
2018-05-14T07:24:41.815Z,38.77
2018-05-14T07:27:10.362Z,41.53
2018-05-14T07:29:38.431Z,42.80
2018-05-14T07:32:07.441Z,38.33
2018-05-14T07:34:35.760Z,40.43
2018-05-14T07:37:04.043Z,40.53
2018-05-14T07:39:32.347Z,39.40
2018-05-14T07:42:01.418Z,36.03
2018-05-14T07:44:29.688Z,38.83
2018-05-14T07:46:57.957Z,43.57
2018-05-14T07:49:26.278Z,38.90
2018-05-14T07:51:55.307Z,41.87
2018-05-14T07:54:23.646Z,36.57
2018-05-14T07:56:51.857Z,37.00
2018-05-14T07:59:20.184Z,38.17
2018-05-14T08:01:48.608Z,35.80
2018-05-14T08:04:16.893Z,35.50
2018-05-14T08:06:45.185Z,36.77
2018-05-14T08:09:13.489Z,32.80
2018-05-14T08:11:41.825Z,30.60
2018-05-14T08:14:10.868Z,34.30
2018-05-14T08:16:39.141Z,32.13
2018-05-14T08:19:07.448Z,31.63
2018-05-14T08:21:36.454Z,29.23
2018-05-14T08:24:05.508Z,33.70
2018-05-14T08:26:33.817Z,31.97
2018-05-14T08:29:02.843Z,32.93
2018-05-14T08:31:31.143Z,34.53
2018-05-14T08:33:59.410Z,34.83
2018-05-14T08:36:27.708Z,32.30
2018-05-14T08:38:55.949Z,31.23
2018-05-14T08:41:24.258Z,27.67
2018-05-14T08:43:52.498Z,32.17
2018-05-14T08:46:20.798Z,27.97
2018-05-14T08:48:49.073Z,27.67
2018-05-14T08:51:17.368Z,32.77
2018-05-14T08:53:45.629Z,28.80
2018-05-14T08:56:13.968Z,26.87
2018-05-14T08:58:42.207Z,27.77
2018-05-14T09:01:10.496Z,28.57
2018-05-14T09:03:39.548Z,24.70
2018-05-14T09:06:07.852Z,27.00
2018-05-14T09:08:36.155Z,24.67
2018-05-14T09:11:05.225Z,24.43
2018-05-14T09:13:33.472Z,25.63
2018-05-14T09:16:01.740Z,22.13
2018-05-14T09:18:30.013Z,21.53
2018-05-14T09:20:58.282Z,23.03
2018-05-14T09:23:26.549Z,21.30
2018-05-14T09:25:54.850Z,21.10
2018-05-14T09:28:23.151Z,20.70
2018-05-14T09:30:51.469Z,24.10
2018-05-14T09:33:20.517Z,17.73
2018-05-14T09:35:48.809Z,19.77
2018-05-14T09:38:17.070Z,17.07
2018-05-14T09:40:45.335Z,18.48
2018-05-14T09:43:13.611Z,17.48
2018-05-14T09:45:41.876Z,17.15
2018-05-14T09:48:10.184Z,20.10
2018-05-14T09:50:38.529Z,20.10
2018-05-14T09:53:06.815Z,22.63
2018-05-14T09:55:35.091Z,16.10
2018-05-14T09:58:03.366Z,15.57
2018-05-14T10:00:31.657Z,16.73
2018-05-14T10:02:59.908Z,18.05
2018-05-14T10:05:28.197Z,13.93
2018-05-14T10:07:56.449Z,15.50
2018-05-14T10:10:24.732Z,14.25
2018-05-14T10:12:53.086Z,14.25
2018-05-14T10:15:21.328Z,17.60
2018-05-14T10:17:49.611Z,12.70
2018-05-14T10:20:17.902Z,13.52
2018-05-14T10:22:47.112Z,13.38
2018-05-14T10:25:16.089Z,12.90
2018-05-14T10:27:44.356Z,11.50
2018-05-14T10:30:12.698Z,14.02
2018-05-14T10:32:40.992Z,14.65
2018-05-14T10:35:09.288Z,13.25
2018-05-14T10:37:37.532Z,13.60
2018-05-14T10:40:05.874Z,17.15
2018-05-14T10:42:34.897Z,16.45
2018-05-14T10:45:03.198Z,15.05
2018-05-14T10:47:31.485Z,13.85
2018-05-14T10:49:59.763Z,12.57
2018-05-14T10:52:28.067Z,12.88
2018-05-14T10:54:57.117Z,13.98
2018-05-14T10:57:25.409Z,13.90
2018-05-14T10:59:53.660Z,10.45
2018-05-14T11:02:21.908Z,9.27
2018-05-14T11:04:50.920Z,13.10
2018-05-14T11:07:19.284Z,10.20
2018-05-14T11:15:48.398Z,10.68
2018-05-14T11:18:16.728Z,10.30
2018-05-14T11:20:44.991Z,9.02
2018-05-14T11:23:13.289Z,9.32
2018-05-14T11:25:41.564Z,10.48
2018-05-14T11:28:09.821Z,12.02
2018-05-14T11:30:38.104Z,12.60
2018-05-14T11:33:06.371Z,11.27
2018-05-14T11:35:34.675Z,9.02
2018-05-14T11:38:03.010Z,10.23
2018-05-14T11:40:32.075Z,9.45
2018-05-14T11:43:00.351Z,9.60
2018-05-14T11:45:28.650Z,9.15
2018-05-14T11:47:57.666Z,9.10
2018-05-14T11:50:26.049Z,7.47
2018-05-14T11:52:54.320Z,7.87
2018-05-14T11:55:22.587Z,9.70
2018-05-14T11:57:51.611Z,7.43
2018-05-14T12:00:19.886Z,7.65
2018-05-14T12:02:48.155Z,8.23
2018-05-14T12:05:16.487Z,11.43
2018-05-14T12:07:44.740Z,7.43
2018-05-14T12:10:13.105Z,8.20
2018-05-14T12:12:41.337Z,7.57
2018-05-14T12:15:10.351Z,7.87
2018-05-14T12:17:38.720Z,8.43
2018-05-14T12:20:07.040Z,7.62
2018-05-14T12:22:35.370Z,9.75
2018-05-14T12:25:04.409Z,8.05
2018-05-14T12:27:32.757Z,6.65
2018-05-14T12:30:01.063Z,6.65
2018-05-14T12:32:29.407Z,7.97
2018-05-14T12:34:57.673Z,6.25
2018-05-14T12:37:25.901Z,8.07
2018-05-14T12:39:54.199Z,6.30
2018-05-14T12:42:22.493Z,7.93
2018-05-14T12:44:51.509Z,5.68
2018-05-14T12:47:19.771Z,5.47
2018-05-14T12:49:48.797Z,5.75
2018-05-14T12:52:17.090Z,6.68
2018-05-14T12:54:45.357Z,5.75
2018-05-14T12:57:13.720Z,7.05
2018-05-14T12:59:41.966Z,6.43
2018-05-14T13:02:11.014Z,6.82
2018-05-14T13:04:39.270Z,6.87
2018-05-14T13:07:07.606Z,6.50
2018-05-14T13:09:35.873Z,5.40
2018-05-14T13:12:04.188Z,6.35
2018-05-14T13:14:32.500Z,6.62
2018-05-14T13:17:00.760Z,5.93
2018-05-14T13:19:29.062Z,6.93
2018-05-14T13:21:57.320Z,5.90
2018-05-14T13:24:25.655Z,8.48
2018-05-14T13:26:54.726Z,5.60
2018-05-14T13:29:22.983Z,4.97
2018-05-14T13:31:51.250Z,6.47
2018-05-14T13:34:19.525Z,4.68
2018-05-14T13:36:47.782Z,7.60
2018-05-14T13:39:16.086Z,4.95
2018-05-14T13:41:44.381Z,5.65
2018-05-14T13:44:12.740Z,5.40
2018-05-14T13:46:41.198Z,3.83
2018-05-14T13:49:09.490Z,4.60
2018-05-14T13:51:37.863Z,4.72
2018-05-14T13:54:06.166Z,4.32
2018-05-14T13:56:34.409Z,4.07
2018-05-14T13:59:02.661Z,5.68
2018-05-14T14:01:31.723Z,5.78
2018-05-14T14:03:59.996Z,4.10
2018-05-14T14:06:28.281Z,9.50
2018-05-14T14:08:56.582Z,7.95
2018-05-14T14:11:25.725Z,4.10
2018-05-14T14:13:53.980Z,3.60
2018-05-14T14:16:22.244Z,6.72
2018-05-14T14:18:51.301Z,4.12
2018-05-14T14:21:19.619Z,4.18
2018-05-14T14:23:48.160Z,4.45
2018-05-14T14:26:16.890Z,6.85
2018-05-14T14:28:45.145Z,3.60
2018-05-14T14:31:38.348Z,5.30
2018-05-14T14:34:06.621Z,5.40
2018-05-14T14:36:34.885Z,4.28
2018-05-14T14:39:03.169Z,6.30
2018-05-14T14:41:31.438Z,3.80
2018-05-14T14:43:59.721Z,5.25
2018-05-14T14:46:28.032Z,7.70
2018-05-14T14:48:57.070Z,4.70
2018-05-14T14:51:26.145Z,7.43
2018-05-14T14:53:54.412Z,3.62
2018-05-14T14:56:22.709Z,5.70
2018-05-14T14:58:51.707Z,4.20
2018-05-14T15:01:20.761Z,4.22
2018-05-14T15:03:49.035Z,4.53
2018-05-14T15:06:17.319Z,7.82
2018-05-14T15:08:45.590Z,7.30
2018-05-14T15:11:13.859Z,4.80
2018-05-14T15:13:42.142Z,5.45
2018-05-14T15:16:10.417Z,6.55
2018-05-14T15:18:38.737Z,4.15
2018-05-14T15:21:07.820Z,4.75
2018-05-14T15:23:36.101Z,5.80
2018-05-14T15:26:04.348Z,4.60
2018-05-14T15:28:32.584Z,7.28
2018-05-14T15:31:00.851Z,6.22
2018-05-14T15:33:30.314Z,3.78
2018-05-14T15:38:58.028Z,3.72
2018-05-14T15:41:27.123Z,3.80
2018-05-14T15:43:55.382Z,3.97
2018-05-14T15:46:23.668Z,4.10
2018-05-14T15:48:51.940Z,5.28
2018-05-14T15:51:20.189Z,4.85
2018-05-14T15:53:48.481Z,8.35
2018-05-14T15:56:16.807Z,8.27
2018-05-14T15:58:45.069Z,3.58
2018-05-14T16:01:13.364Z,4.25
2018-05-14T16:03:41.641Z,6.28
2018-05-14T16:09:22.906Z,5.12
2018-05-14T16:11:51.935Z,4.62
2018-05-14T16:14:20.187Z,6.03
2018-05-14T16:16:49.243Z,5.57
2018-05-14T16:19:17.548Z,6.30
2018-05-14T16:21:45.809Z,4.45
2018-05-14T16:24:14.098Z,6.87
2018-05-14T16:26:42.455Z,3.87
2018-05-14T16:29:10.674Z,4.12
2018-05-14T16:31:39.723Z,5.37
2018-05-14T16:34:07.998Z,6.20
2018-05-14T16:36:36.269Z,5.00
2018-05-14T16:39:04.608Z,5.55
2018-05-14T16:41:33.668Z,4.82
2018-05-14T16:44:01.933Z,4.82
2018-05-14T16:46:30.197Z,6.30
2018-05-14T16:48:58.449Z,4.10
2018-05-14T16:51:26.708Z,6.37
2018-05-14T16:53:55.018Z,4.95
2018-05-14T16:56:23.285Z,6.57
2018-05-14T16:58:51.556Z,5.32
2018-05-14T17:01:19.817Z,8.65
2018-05-14T17:03:48.097Z,4.10
2018-05-14T17:06:16.345Z,4.37
2018-05-14T17:08:45.433Z,4.20
2018-05-14T17:11:13.688Z,7.43
2018-05-14T17:13:41.926Z,7.32
2018-05-14T17:16:10.174Z,5.32
2018-05-14T17:21:39.666Z,9.05
2018-05-14T17:24:07.991Z,5.90
2018-05-14T17:26:36.244Z,5.05
2018-05-14T17:29:04.510Z,4.18
2018-05-14T17:31:32.793Z,7.28
2018-05-14T17:34:01.088Z,6.25
2018-05-14T17:36:30.093Z,4.32
2018-05-14T17:38:59.148Z,4.53
2018-05-14T17:41:27.457Z,7.25
2018-05-14T19:08:14.144Z,6.90
2018-05-14T19:10:48.087Z,4.93
2018-05-14T19:13:16.485Z,7.43
2018-05-14T19:15:50.304Z,15.85
2018-05-14T19:18:18.643Z,6.45
2018-05-14T19:20:46.994Z,8.35
2018-05-14T19:23:20.823Z,12.98
2018-05-14T19:25:49.212Z,8.35
2018-05-14T19:28:23.754Z,11.38
2018-05-14T19:30:52.861Z,21.45
2018-05-14T19:33:26.675Z,9.15
2018-05-14T19:35:57.724Z,7.68
2018-05-14T19:38:42.938Z,9.60
2018-05-14T19:41:11.413Z,4.93
2018-05-14T19:43:39.780Z,5.62
2018-05-14T19:46:08.183Z,5.28
2018-05-14T19:48:37.619Z,7.55
2018-05-14T19:51:06.972Z,8.55
2018-05-14T19:53:35.338Z,6.03
2018-05-14T19:56:03.725Z,7.55
2018-05-14T19:58:32.074Z,5.07
2018-05-14T20:01:00.408Z,9.90
2018-05-14T20:03:28.809Z,7.55
2018-05-14T20:05:57.139Z,8.45
2018-05-14T20:08:25.783Z,5.32
2018-05-14T20:10:54.129Z,5.20
2018-05-14T20:13:22.480Z,10.23
2018-05-14T20:15:50.879Z,6.68
2018-05-14T20:18:19.261Z,5.78
2018-05-14T20:20:47.583Z,6.22
2018-05-14T20:23:16.744Z,5.45
2018-05-14T20:25:45.879Z,8.55
2018-05-14T20:28:14.162Z,5.55
2018-05-14T20:30:42.515Z,5.25
2018-05-14T20:33:11.663Z,8.40
2018-05-14T20:35:39.998Z,5.28
2018-05-14T20:38:08.297Z,7.75
2018-05-14T20:40:36.614Z,5.22
2018-05-14T20:43:04.990Z,5.62
2018-05-14T20:45:33.373Z,7.55
2018-05-14T20:48:01.712Z,10.50
2018-05-14T20:50:30.259Z,6.82
2018-05-14T20:52:58.970Z,5.43
2018-05-14T20:55:27.388Z,6.55
2018-05-14T20:57:55.697Z,4.53
2018-05-14T21:00:24.812Z,4.50
2018-05-14T21:02:53.232Z,5.75
2018-05-14T21:05:21.606Z,4.57
2018-05-14T21:07:59.408Z,7.53
2018-05-14T21:10:27.698Z,4.55
2018-05-14T21:12:56.073Z,8.30
2018-05-14T21:15:24.487Z,5.55
2018-05-14T21:17:53.608Z,7.67
2018-05-14T21:20:21.946Z,7.17
2018-05-14T21:22:50.305Z,5.15
2018-05-14T21:25:18.590Z,7.32
2018-05-14T21:27:46.964Z,5.63
2018-05-14T21:30:17.215Z,6.15
2018-05-14T21:32:46.292Z,6.87
2018-05-14T21:35:14.627Z,5.97
2018-05-14T21:37:43.008Z,4.80
2018-05-14T21:40:12.064Z,7.17
2018-05-14T21:42:41.183Z,4.47
2018-05-14T21:45:09.531Z,9.40
2018-05-14T21:47:37.892Z,5.67
2018-05-14T21:50:06.341Z,8.40
2018-05-14T21:52:34.729Z,6.83
2018-05-14T21:55:03.142Z,8.73
2018-05-14T21:57:31.455Z,6.03
2018-05-14T22:00:00.540Z,7.33
2018-05-14T22:02:29.640Z,5.40
2018-05-14T22:04:58.758Z,4.97
2018-05-14T22:07:27.082Z,6.90
2018-05-14T22:09:55.412Z,6.13
2018-05-14T22:12:23.784Z,6.43
2018-05-14T22:14:52.135Z,6.37
2018-05-14T22:17:21.279Z,7.77
2018-05-14T22:19:49.592Z,6.43
2018-05-14T22:22:17.912Z,4.80
2018-05-14T22:24:46.283Z,5.97
2018-05-14T22:27:15.404Z,4.70
2018-05-14T22:29:49.793Z,5.10
2018-05-14T22:32:18.881Z,4.47
2018-05-14T22:34:47.943Z,5.40
2018-05-14T22:37:16.312Z,7.67
2018-05-14T22:39:44.604Z,6.73
2018-05-14T22:42:12.978Z,6.23
2018-05-14T22:44:41.249Z,7.10
2018-05-14T22:47:09.560Z,5.37
2018-05-14T22:49:38.645Z,7.10
2018-05-14T22:52:06.975Z,8.57
2018-05-14T22:54:37.984Z,5.10
2018-05-14T22:57:07.055Z,7.27
2018-05-14T22:59:35.381Z,7.23
2018-05-14T23:02:03.754Z,5.03
2018-05-14T23:04:32.095Z,4.70
2018-05-14T23:07:00.408Z,8.83
2018-05-14T23:09:28.753Z,8.90
2018-05-14T23:11:57.844Z,5.47
2018-05-14T23:14:26.254Z,8.70
2018-05-14T23:16:55.313Z,5.30
2018-05-14T23:19:23.612Z,6.23
2018-05-14T23:21:51.973Z,7.70
2018-05-14T23:24:20.300Z,7.50
2018-05-14T23:26:48.573Z,8.80
2018-05-14T23:29:16.925Z,5.50
2018-05-14T23:31:46.012Z,8.43
2018-05-14T23:34:14.296Z,6.57
2018-05-14T23:36:43.458Z,10.63
2018-05-14T23:39:11.736Z,6.30
2018-05-14T23:41:40.092Z,6.63
2018-05-14T23:44:08.364Z,7.60
2018-05-14T23:46:36.695Z,5.47
2018-05-14T23:49:04.972Z,6.30
2018-05-14T23:51:33.389Z,8.93
2018-05-14T23:54:01.702Z,6.43
2018-05-14T23:56:30.058Z,4.70
2018-05-14T23:58:58.388Z,8.07
